Time;durP1;ratioP1;P1;durP2;ratioP2;P2;SDS_P1;SDS_P2;PMS_P1;PMS_P2;Temp;Humidity;BMP_temperature;BMP_pressure;BME280_temperature;BME280_humidity;BME280_pressure;Samples;Min_cycle;Max_cycle;Signal;HPM_P1;HPM_P2
2022/10/22 00:02:04;;;;;;;8.85;6.38;;;12.80;99.90;;;;;;4968089;28;20495;-84
2022/10/22 00:04:30;;;;;;;12.57;7.03;;;12.80;99.90;;;;;;5005067;28;20050;-83
2022/10/22 00:06:56;;;;;;;12.88;6.43;;;12.80;99.90;;;;;;4988286;28;20042;-84
2022/10/22 00:09:21;;;;;;;10.18;6.30;;;12.70;99.90;;;;;;4986164;28;20049;-84
2022/10/22 00:11:47;;;;;;;13.45;6.95;;;12.70;99.90;;;;;;4994673;28;20037;-84
2022/10/22 00:14:13;;;;;;;12.17;6.60;;;12.70;99.90;;;;;;4999977;28;20076;-83
2022/10/22 00:16:38;;;;;;;10.98;6.60;;;12.70;99.90;;;;;;5009881;28;20285;-84
2022/10/22 00:19:04;;;;;;;11.35;6.85;;;12.60;99.90;;;;;;4990822;28;20042;-83
2022/10/22 00:21:30;;;;;;;11.75;6.80;;;12.60;99.90;;;;;;4988820;28;20040;-84
2022/10/22 00:23:55;;;;;;;17.73;7.22;;;12.70;99.90;;;;;;4990490;28;20548;-83
2022/10/22 00:26:22;;;;;;;12.65;6.85;;;12.70;99.90;;;;;;4988354;28;20046;-83
2022/10/22 00:28:47;;;;;;;10.65;7.00;;;12.70;99.90;;;;;;5003831;28;20049;-83
2022/10/22 00:31:14;;;;;;;13.57;6.97;;;12.70;99.90;;;;;;5004713;28;20782;-84
2022/10/22 00:33:40;;;;;;;15.60;7.95;;;12.70;99.90;;;;;;4985526;28;20046;-83
2022/10/22 00:36:06;;;;;;;11.18;7.32;;;12.60;99.90;;;;;;4987622;28;20407;-83
2022/10/22 00:38:32;;;;;;;;;;;12.60;99.90;;;;;;4984392;28;20057;-84
2022/10/22 00:40:58;;;;;;;10.35;6.65;;;12.60;99.90;;;;;;5002601;28;19918;-83
2022/10/22 00:43:23;;;;;;;9.32;6.82;;;12.50;99.90;;;;;;4990491;28;20152;-83
2022/10/22 00:45:49;;;;;;;11.65;7.03;;;12.50;99.90;;;;;;4992105;28;20045;-84
2022/10/22 00:48:28;;;;;;;12.82;7.25;;;12.50;99.90;;;;;;5004507;28;20461;-84
2022/10/22 00:51:00;;;;;;;12.65;7.25;;;12.40;99.90;;;;;;5003994;28;20073;-85
2022/10/22 00:53:35;;;;;;;12.32;7.70;;;12.40;99.90;;;;;;4985413;28;20461;-84
2022/10/22 00:56:01;;;;;;;14.15;7.88;;;12.40;99.90;;;;;;5010746;28;20398;-84
2022/10/22 00:58:30;;;;;;;11.57;7.30;;;12.50;99.90;;;;;;4987151;28;20058;-84
2022/10/22 01:00:56;;;;;;;12.88;7.28;;;12.40;99.90;;;;;;4998818;28;20050;-84
2022/10/22 01:03:22;;;;;;;14.00;7.85;;;12.40;99.90;;;;;;4986231;28;20057;-84
2022/10/22 01:05:59;;;;;;;11.00;7.65;;;12.40;99.90;;;;;;5000177;28;20034;-84
2022/10/22 01:08:37;;;;;;;11.75;7.70;;;12.40;99.90;;;;;;4999153;28;20379;-84
2022/10/22 01:11:30;;;;;;;11.80;7.60;;;12.40;99.90;;;;;;4983765;28;20490;-84
2022/10/22 01:14:03;;;;;;;15.23;7.35;;;12.40;99.90;;;;;;4965842;28;20108;-84
2022/10/22 01:16:43;;;;;;;13.82;6.90;;;12.40;99.90;;;;;;4988933;28;20049;-84
2022/10/22 01:19:44;;;;;;;12.75;7.53;;;12.50;99.90;;;;;;4991813;28;20502;-84
2022/10/22 01:22:34;;;;;;;10.80;7.28;;;12.50;99.90;;;;;;5005279;28;20046;-84
2022/10/22 01:25:18;;;;;;;10.95;6.90;;;12.50;99.90;;;;;;5005517;28;20030;-84
2022/10/22 01:27:59;;;;;;;10.57;6.60;;;12.50;99.90;;;;;;4989528;28;20053;-84
2022/10/22 01:30:25;;;;;;;11.63;7.47;;;12.50;99.90;;;;;;5004251;28;20029;-84
2022/10/22 01:32:53;;;;;;;;;;;12.50;99.90;;;;;;4985247;28;20042;-84
2022/10/22 01:35:24;;;;;;;;;;;12.50;99.90;;;;;;4987079;28;19924;-84
2022/10/22 01:37:54;;;;;;;13.82;6.82;;;12.50;99.90;;;;;;5001163;28;20251;-84
2022/10/22 01:40:22;;;;;;;12.35;6.32;;;12.40;99.90;;;;;;5005759;28;20546;-84
2022/10/22 01:42:55;;;;;;;12.70;6.40;;;12.50;99.90;;;;;;5001135;28;20060;-84
2022/10/22 01:45:21;;;;;;;10.07;6.55;;;12.50;99.90;;;;;;4989491;28;20462;-84
2022/10/22 01:48:11;;;;;;;11.88;6.35;;;12.50;99.90;;;;;;5001955;28;20038;-84
2022/10/22 01:50:47;;;;;;;12.00;6.82;;;12.50;99.90;;;;;;4984809;28;20053;-84
2022/10/22 01:53:31;;;;;;;13.75;6.45;;;12.50;99.90;;;;;;4983265;28;20038;-84
2022/10/22 01:56:02;;;;;;;12.73;6.82;;;12.50;99.90;;;;;;5002929;28;20402;-85
2022/10/22 01:58:49;;;;;;;10.85;6.70;;;12.50;99.90;;;;;;5002223;28;20069;-84
2022/10/22 02:01:33;;;;;;;13.52;7.28;;;12.50;99.90;;;;;;4984087;28;20042;-85
2022/10/22 02:04:19;;;;;;;11.52;7.00;;;12.60;99.90;;;;;;4999985;28;20084;-84
2022/10/22 02:06:48;;;;;;;12.98;6.85;;;12.60;99.90;;;;;;5000787;28;20448;-84
2022/10/22 02:09:17;;;;;;;15.93;6.97;;;12.60;99.90;;;;;;4998493;28;20053;-84
2022/10/22 02:11:44;;;;;;;13.80;7.18;;;12.60;99.90;;;;;;5002232;28;20509;-84
2022/10/22 02:14:12;;;;;;;12.27;6.40;;;12.60;99.90;;;;;;4989216;28;20446;-84
2022/10/22 02:16:44;;;;;;;10.88;7.07;;;12.60;99.90;;;;;;4988422;28;20122;-84
2022/10/22 02:19:23;;;;;;;15.10;7.72;;;12.60;99.90;;;;;;5001980;28;20096;-84
2022/10/22 02:21:49;;;;;;;10.63;6.82;;;12.60;99.90;;;;;;4986186;28;20034;-84
2022/10/22 02:24:15;;;;;;;14.88;7.43;;;12.60;99.90;;;;;;4988306;28;20101;-84
2022/10/22 02:26:50;;;;;;;13.38;7.72;;;12.60;99.90;;;;;;4980642;28;20038;-84
2022/10/22 02:29:33;;;;;;;14.07;6.93;;;12.50;99.90;;;;;;4994676;28;20046;-84
2022/10/22 02:32:02;;;;;;;13.20;6.45;;;12.50;99.90;;;;;;4983756;28;20422;-84
2022/10/22 02:34:30;;;;;;;11.35;6.60;;;12.50;99.90;;;;;;4967352;28;20104;-84
2022/10/22 02:36:58;;;;;;;11.55;6.70;;;12.50;99.90;;;;;;4983341;28;20043;-84
2022/10/22 02:39:26;;;;;;;13.82;7.05;;;12.50;99.90;;;;;;5008504;28;20042;-85
2022/10/22 02:41:54;;;;;;;14.50;7.88;;;12.50;99.90;;;;;;4997606;28;20053;-84
2022/10/22 02:44:21;;;;;;;15.00;7.20;;;12.50;99.90;;;;;;4970545;28;20029;-84
2022/10/22 02:46:48;;;;;;;10.40;6.55;;;12.50;99.90;;;;;;4998614;28;20128;-83
2022/10/22 02:49:13;;;;;;;12.55;6.93;;;12.60;99.90;;;;;;4997190;28;20494;-83
2022/10/22 02:51:39;;;;;;;11.80;7.25;;;12.60;99.90;;;;;;4985816;28;20049;-84
2022/10/22 02:54:05;;;;;;;15.65;6.80;;;12.60;99.90;;;;;;4979602;28;20042;-84
2022/10/22 02:56:31;;;;;;;14.95;6.82;;;12.60;99.90;;;;;;4985640;28;20037;-85
2022/10/22 02:58:57;;;;;;;12.80;6.75;;;12.60;99.90;;;;;;4970066;28;20456;-84
2022/10/22 03:01:23;;;;;;;11.65;6.93;;;12.70;99.90;;;;;;4985068;28;20037;-85
2022/10/22 03:03:48;;;;;;;10.95;6.68;;;12.60;99.90;;;;;;4977856;28;20045;-85
2022/10/22 03:06:14;;;;;;;14.85;7.28;;;12.60;99.90;;;;;;4973624;28;20042;-83
2022/10/22 03:08:43;;;;;;;11.48;6.88;;;12.70;99.90;;;;;;4985717;28;20490;-83
2022/10/22 03:11:09;;;;;;;18.02;7.57;;;12.70;99.90;;;;;;5001396;28;20041;-85
2022/10/22 03:13:34;;;;;;;16.83;6.93;;;12.70;99.90;;;;;;4971383;28;20140;-84
2022/10/22 03:16:00;;;;;;;12.73;6.67;;;12.70;99.90;;;;;;4989681;28;20312;-83
2022/10/22 03:18:26;;;;;;;11.68;6.75;;;12.70;99.90;;;;;;4996403;28;20392;-83
2022/10/22 03:21:04;;;;;;;11.68;6.45;;;12.70;99.90;;;;;;4999089;28;20124;-82
2022/10/22 03:23:31;;;;;;;13.23;7.10;;;12.60;99.90;;;;;;4999143;28;20092;-82
2022/10/22 03:25:57;;;;;;;;;;;12.60;99.90;;;;;;4986125;28;20042;-83
2022/10/22 03:28:25;;;;;;;12.75;6.85;;;12.60;99.90;;;;;;4983121;28;19925;-83
2022/10/22 03:30:51;;;;;;;14.35;7.35;;;12.50;99.90;;;;;;5003001;28;20041;-82
2022/10/22 03:33:17;;;;;;;12.30;6.85;;;12.50;99.90;;;;;;4984911;28;20500;-77
2022/10/22 03:35:45;;;;;;;11.80;7.32;;;12.50;99.90;;;;;;4971468;28;20129;-77
2022/10/22 03:38:12;;;;;;;12.82;6.85;;;12.40;99.90;;;;;;4984363;28;20042;-78
2022/10/22 03:40:38;;;;;;;14.38;7.20;;;12.50;99.90;;;;;;4961117;28;20030;-78
2022/10/22 03:43:04;;;;;;;;;;;12.40;99.90;;;;;;4989287;28;20061;-78
2022/10/22 03:45:29;;;;;;;18.58;6.82;;;12.40;99.90;;;;;;4987827;28;19917;-78
2022/10/22 03:47:55;;;;;;;16.10;6.93;;;12.40;99.90;;;;;;4966720;28;20080;-78
2022/10/22 03:50:21;;;;;;;12.77;6.65;;;12.40;99.90;;;;;;4988007;28;20030;-78
2022/10/22 03:52:46;;;;;;;12.53;7.23;;;12.40;99.90;;;;;;4984552;28;20034;-77
2022/10/22 03:55:12;;;;;;;12.45;6.53;;;12.40;99.90;;;;;;4969538;28;20037;-77
2022/10/22 03:57:37;;;;;;;15.85;7.25;;;12.40;99.90;;;;;;4965083;28;20093;-77
2022/10/22 04:00:05;;;;;;;15.87;7.13;;;12.40;99.90;;;;;;4981546;28;20050;-77
2022/10/22 04:02:31;;;;;;;11.73;7.47;;;12.50;99.90;;;;;;4996204;28;20289;-77
2022/10/22 04:04:57;;;;;;;15.73;7.35;;;12.50;99.90;;;;;;4983343;28;20039;-77
2022/10/22 04:07:22;;;;;;;16.07;8.07;;;12.50;99.90;;;;;;4968724;28;20379;-78
2022/10/22 04:09:48;;;;;;;18.03;7.90;;;12.50;99.90;;;;;;4983773;28;20764;-78
2022/10/22 04:12:14;;;;;;;16.67;7.43;;;12.50;99.90;;;;;;4988096;28;20395;-78
2022/10/22 04:14:39;;;;;;;12.25;6.93;;;12.50;99.90;;;;;;4968463;28;20288;-78
2022/10/22 04:17:05;;;;;;;14.43;7.32;;;12.40;99.90;;;;;;4987066;28;20093;-78
2022/10/22 04:19:30;;;;;;;16.95;8.32;;;12.50;99.90;;;;;;4985786;28;20156;-78
2022/10/22 04:21:58;;;;;;;15.03;7.57;;;12.40;99.90;;;;;;5000723;28;20029;-78
2022/10/22 04:24:24;;;;;;;10.00;6.75;;;12.50;99.90;;;;;;4989050;28;20285;-78
2022/10/22 04:26:49;;;;;;;18.38;8.18;;;12.50;99.90;;;;;;4991516;28;20183;-78
2022/10/22 04:29:15;;;;;;;13.35;7.50;;;12.50;99.90;;;;;;4972880;28;20034;-78
2022/10/22 04:31:41;;;;;;;15.45;7.65;;;12.40;99.90;;;;;;4968382;28;20121;-78
2022/10/22 04:34:06;;;;;;;15.13;7.47;;;12.40;99.90;;;;;;4984063;28;20060;-78
2022/10/22 04:36:32;;;;;;;14.23;7.77;;;12.40;99.90;;;;;;4987887;28;20052;-78
2022/10/22 04:39:00;;;;;;;11.90;7.57;;;12.40;99.90;;;;;;4975807;28;20383;-78
2022/10/22 04:41:29;;;;;;;16.08;7.45;;;12.40;99.90;;;;;;4990453;28;20041;-78
2022/10/22 04:43:55;;;;;;;15.23;7.95;;;12.40;99.90;;;;;;4986630;28;20084;-78
2022/10/22 04:46:21;;;;;;;;;;;12.40;99.90;;;;;;4964939;28;20437;-78
2022/10/22 04:48:47;;;;;;;13.90;7.40;;;12.30;99.90;;;;;;4982526;28;19968;-78
2022/10/22 04:51:16;;;;;;;14.98;8.43;;;12.40;99.90;;;;;;5004418;28;20041;-78
2022/10/22 04:53:42;;;;;;;13.32;7.75;;;12.40;99.90;;;;;;5000212;28;20037;-78
2022/10/22 04:56:20;;;;;;;14.88;8.20;;;12.40;99.90;;;;;;4975064;28;20065;-78
2022/10/22 04:58:54;;;;;;;14.43;7.72;;;12.40;99.90;;;;;;5001958;28;20049;-78
2022/10/22 05:01:26;;;;;;;15.13;8.75;;;12.40;99.90;;;;;;4985553;28;20120;-78
2022/10/22 05:03:54;;;;;;;18.38;8.82;;;12.40;99.90;;;;;;4983313;28;20080;-78
2022/10/22 05:06:21;;;;;;;13.68;8.13;;;12.40;99.90;;;;;;4999515;28;20456;-78
2022/10/22 05:08:47;;;;;;;18.63;9.20;;;12.30;99.90;;;;;;4985700;28;20450;-78
2022/10/22 05:11:19;;;;;;;16.42;8.43;;;12.30;99.90;;;;;;5002101;28;20088;-78
2022/10/22 05:13:45;;;;;;;16.45;8.77;;;12.30;99.90;;;;;;4986762;28;20046;-78
2022/10/22 05:16:11;;;;;;;18.23;8.23;;;12.30;99.90;;;;;;4984033;28;20040;-78
2022/10/22 05:18:39;;;;;;;17.42;8.82;;;12.30;99.90;;;;;;4987585;28;20130;-78
2022/10/22 05:21:11;;;;;;;13.85;7.93;;;12.30;99.90;;;;;;4980923;28;20092;-78
2022/10/22 05:23:36;;;;;;;15.23;8.48;;;12.20;99.90;;;;;;4986690;28;20045;-78
2022/10/22 05:26:04;;;;;;;17.95;8.00;;;12.20;99.90;;;;;;4989391;28;20038;-78
2022/10/22 05:28:30;;;;;;;14.70;8.75;;;12.20;99.90;;;;;;4999224;28;20034;-78
2022/10/22 05:30:58;;;;;;;13.90;7.70;;;12.20;99.90;;;;;;5001637;28;20092;-78
2022/10/22 05:33:24;;;;;;;14.98;8.60;;;12.20;99.90;;;;;;5000386;28;20034;-78
2022/10/22 05:35:50;;;;;;;13.95;8.57;;;12.20;99.90;;;;;;4968046;28;20096;-78
2022/10/22 05:38:17;;;;;;;15.73;8.80;;;12.20;99.90;;;;;;4971328;28;20038;-78
2022/10/22 05:40:43;;;;;;;;;;;12.20;99.90;;;;;;4987801;28;20200;-78
2022/10/22 05:43:08;;;;;;;14.45;8.40;;;12.20;99.90;;;;;;4999455;28;19957;-77
2022/10/22 05:45:38;;;;;;;13.98;7.80;;;12.20;99.90;;;;;;4980334;28;20034;-78
2022/10/22 05:48:04;;;;;;;20.88;8.35;;;12.30;99.90;;;;;;4983618;28;20109;-78
2022/10/22 05:50:31;;;;;;;16.45;8.27;;;12.30;99.90;;;;;;4968675;28;20072;-78
2022/10/22 05:52:56;;;;;;;20.02;8.93;;;12.30;99.90;;;;;;4994262;28;20070;-78
2022/10/22 05:55:22;;;;;;;15.70;7.60;;;12.30;99.90;;;;;;5006267;28;20061;-78
2022/10/22 05:57:49;;;;;;;17.17;8.35;;;12.30;99.90;;;;;;4983178;28;20055;-78
2022/10/22 06:00:15;;;;;;;;;;;12.40;99.90;;;;;;5007400;28;20070;-78
2022/10/22 06:02:40;;;;;;;15.23;8.05;;;12.40;99.90;;;;;;4967989;28;19949;-78
2022/10/22 06:05:06;;;;;;;19.02;8.65;;;12.30;99.90;;;;;;4998951;28;20072;-78
2022/10/22 06:07:32;;;;;;;13.90;8.60;;;12.40;99.90;;;;;;5003127;28;20088;-78
2022/10/22 06:09:58;;;;;;;17.88;8.30;;;12.30;99.90;;;;;;4982706;28;20037;-78
2022/10/22 06:12:24;;;;;;;17.60;8.13;;;12.40;99.90;;;;;;4998191;28;20073;-78
2022/10/22 06:14:50;;;;;;;19.42;8.82;;;12.40;99.90;;;;;;4995198;28;20042;-78
2022/10/22 06:17:18;;;;;;;16.33;8.75;;;12.40;99.90;;;;;;4988317;28;20096;-78
2022/10/22 06:19:44;;;;;;;16.13;9.05;;;12.40;99.90;;;;;;4972861;28;20042;-78
2022/10/22 06:22:09;;;;;;;15.50;8.95;;;12.40;99.90;;;;;;4971380;28;20075;-78
2022/10/22 06:24:35;;;;;;;17.83;8.60;;;12.40;99.90;;;;;;4982547;28;20441;-78
2022/10/22 06:27:01;;;;;;;15.90;7.80;;;12.40;99.90;;;;;;5003452;28;20034;-78
2022/10/22 06:29:27;;;;;;;16.27;8.80;;;12.40;99.90;;;;;;4986909;28;20077;-78
2022/10/22 06:31:53;;;;;;;12.88;8.00;;;12.30;99.90;;;;;;4973751;28;20068;-78
2022/10/22 06:34:19;;;;;;;17.00;9.10;;;12.40;99.90;;;;;;4982331;28;20047;-78
2022/10/22 06:36:45;;;;;;;17.33;8.65;;;12.40;99.90;;;;;;4981624;28;20290;-78
2022/10/22 06:39:13;;;;;;;16.27;8.65;;;12.40;99.90;;;;;;4965356;28;20045;-76
2022/10/22 06:41:39;;;;;;;14.45;8.57;;;12.30;99.90;;;;;;4994149;28;20034;-75
2022/10/22 06:44:05;;;;;;;12.15;7.97;;;12.30;99.90;;;;;;4985172;28;20046;-75
2022/10/22 06:46:31;;;;;;;13.27;7.60;;;12.40;99.90;;;;;;4972422;28;20049;-75
2022/10/22 06:48:59;;;;;;;17.15;7.80;;;12.40;99.90;;;;;;5007759;28;20281;-75
2022/10/22 06:51:26;;;;;;;16.58;7.78;;;12.50;99.90;;;;;;5000859;28;20112;-75
2022/10/22 06:53:52;;;;;;;17.27;8.70;;;12.50;99.90;;;;;;5006842;28;20060;-76
2022/10/22 06:56:22;;;;;;;14.80;7.63;;;12.50;99.90;;;;;;4997552;28;20042;-77
2022/10/22 06:58:49;;;;;;;15.80;8.23;;;12.60;99.90;;;;;;4981730;28;20057;-76
2022/10/22 07:01:16;;;;;;;15.43;8.38;;;12.60;99.90;;;;;;5001235;28;20048;-77
2022/10/22 07:03:42;;;;;;;18.05;7.75;;;12.70;99.90;;;;;;5005596;28;20049;-76
2022/10/22 07:06:10;;;;;;;14.73;7.73;;;12.70;99.90;;;;;;4980713;28;20506;-76
2022/10/22 07:08:37;;;;;;;14.98;8.48;;;12.80;99.90;;;;;;5000261;28;20339;-75
2022/10/22 07:11:09;;;;;;;13.90;7.80;;;12.80;99.90;;;;;;4986235;28;20102;-76
2022/10/22 07:13:35;;;;;;;12.85;7.75;;;12.80;99.90;;;;;;5001676;28;20046;-76
2022/10/22 07:16:01;;;;;;;15.30;7.88;;;12.90;99.90;;;;;;5005449;28;20054;-76
2022/10/22 07:18:27;;;;;;;16.30;7.45;;;13.00;99.90;;;;;;4979128;28;20046;-76
2022/10/22 07:20:52;;;;;;;11.18;6.80;;;13.00;99.90;;;;;;4998397;28;20038;-76
2022/10/22 07:23:18;;;;;;;13.75;7.45;;;13.00;99.90;;;;;;5002440;28;20406;-76
2022/10/22 07:25:44;;;;;;;15.18;7.18;;;13.10;99.90;;;;;;4997836;28;20045;-76
2022/10/22 07:28:10;;;;;;;13.82;7.28;;;13.20;99.90;;;;;;5004783;28;20030;-76
2022/10/22 07:30:36;;;;;;;10.88;6.50;;;13.20;99.90;;;;;;4983422;28;20076;-76
2022/10/22 07:33:02;;;;;;;14.95;6.72;;;13.20;99.90;;;;;;5000613;28;20046;-77
2022/10/22 07:35:28;;;;;;;14.05;7.10;;;13.20;99.90;;;;;;4981680;28;20038;-76
2022/10/22 07:37:54;;;;;;;13.15;6.13;;;13.30;99.90;;;;;;4989787;28;20041;-76
2022/10/22 07:40:22;;;;;;;12.55;5.78;;;13.30;99.90;;;;;;4986584;28;20042;-76
2022/10/22 07:42:48;;;;;;;13.65;6.75;;;13.40;99.90;;;;;;4979123;28;20045;-76
2022/10/22 07:45:14;;;;;;;9.77;6.27;;;13.50;99.90;;;;;;4970160;28;20042;-82
2022/10/22 07:47:39;;;;;;;11.35;6.28;;;13.50;99.90;;;;;;4970710;28;20285;-76
2022/10/22 07:50:06;;;;;;;14.73;6.03;;;13.50;99.90;;;;;;5002625;28;20134;-74
2022/10/22 07:52:32;;;;;;;11.30;6.00;;;13.50;99.90;;;;;;5008932;28;20124;-75
2022/10/22 07:54:58;;;;;;;10.13;5.68;;;13.50;99.90;;;;;;5003931;28;20042;-78
2022/10/22 07:57:24;;;;;;;13.05;5.82;;;13.60;99.90;;;;;;4990519;28;20420;-79
2022/10/22 07:59:50;;;;;;;11.70;5.70;;;13.60;99.90;;;;;;4989351;28;20056;-77
2022/10/22 08:02:15;;;;;;;13.23;6.38;;;13.60;99.90;;;;;;4998768;28;20754;-77
2022/10/22 08:04:41;;;;;;;12.88;5.70;;;13.50;99.90;;;;;;5004833;28;20069;-77
2022/10/22 08:07:07;;;;;;;9.93;5.63;;;13.60;99.90;;;;;;4999858;28;20454;-78
2022/10/22 08:09:33;;;;;;;12.15;6.22;;;13.60;99.90;;;;;;4987346;28;20289;-77
2022/10/22 08:11:58;;;;;;;14.30;6.43;;;13.60;99.90;;;;;;5006159;28;20444;-80
2022/10/22 08:14:24;;;;;;;12.82;6.10;;;13.60;99.90;;;;;;5000497;28;20041;-76
2022/10/22 08:16:50;;;;;;;12.02;5.50;;;13.60;99.90;;;;;;5003013;28;20081;-77
2022/10/22 08:19:20;;;;;;;9.85;5.47;;;13.60;99.90;;;;;;4969021;28;20529;-81
2022/10/22 08:21:46;;;;;;;9.30;4.78;;;13.70;99.90;;;;;;5011047;28;20034;-80
2022/10/22 08:24:12;;;;;;;9.10;5.32;;;13.70;99.90;;;;;;4994477;28;20042;-80
2022/10/22 08:26:38;;;;;;;10.88;5.57;;;13.70;99.90;;;;;;5000634;28;20177;-81
2022/10/22 08:29:04;;;;;;;;;;;13.80;99.90;;;;;;4988583;28;20053;-79
2022/10/22 08:31:30;;;;;;;11.88;5.30;;;14.20;99.90;;;;;;4989485;28;19917;-79
2022/10/22 08:33:56;;;;;;;10.43;4.50;;;14.60;99.90;;;;;;4987407;28;20073;-78
2022/10/22 08:36:21;;;;;;;10.77;4.65;;;15.20;99.90;;;;;;5003322;28;20048;-79
2022/10/22 08:38:47;;;;;;;15.48;4.47;;;15.80;99.90;;;;;;4995810;28;20549;-80
2022/10/22 08:41:16;;;;;;;9.90;3.90;;;16.40;99.90;;;;;;4979708;28;20030;-78
2022/10/22 08:44:09;;;;;;;9.30;3.85;;;16.90;99.90;;;;;;5004594;28;20085;-76
2022/10/22 08:46:53;;;;;;;8.70;3.90;;;17.50;99.90;;;;;;5000357;28;20142;-76
2022/10/22 08:49:26;;;;;;;7.60;3.35;;;18.10;99.90;;;;;;5000239;28;20100;-76
2022/10/22 08:51:52;;;;;;;8.18;3.72;;;18.50;99.90;;;;;;5001401;28;20085;-75
2022/10/22 08:54:54;;;;;;;9.45;3.15;;;19.00;99.90;;;;;;4984314;28;20039;-76
2022/10/22 08:57:50;;;;;;;8.75;3.30;;;19.40;99.90;;;;;;4972073;28;20129;-76
2022/10/22 09:00:44;;;;;;;8.38;2.92;;;19.70;99.90;;;;;;5002007;28;20056;-77
2022/10/22 09:03:41;;;;;;;8.85;3.28;;;19.90;99.90;;;;;;5004034;28;20044;-77
2022/10/22 09:06:32;;;;;;;8.13;2.53;;;20.30;99.90;;;;;;5003185;28;20049;-75
2022/10/22 09:08:59;;;;;;;9.40;2.80;;;20.70;99.90;;;;;;5007154;28;20052;-78
2022/10/22 09:11:35;;;;;;;10.93;2.92;;;20.90;99.90;;;;;;4983829;28;20081;-77
2022/10/22 09:14:02;;;;;;;10.60;2.72;;;21.10;99.90;;;;;;4998707;28;20578;-77
2022/10/22 09:16:46;;;;;;;8.90;3.25;;;21.20;99.90;;;;;;4988438;28;20056;-76
2022/10/22 09:19:22;;;;;;;8.93;2.70;;;21.20;99.90;;;;;;5002950;28;20084;-76
2022/10/22 09:22:01;;;;;;;11.23;2.72;;;21.20;99.90;;;;;;4982747;28;20125;-77
2022/10/22 09:24:37;;;;;;;10.52;2.88;;;21.00;99.90;;;;;;5000827;28;20049;-77
2022/10/22 09:27:15;;;;;;;8.80;2.50;;;20.90;99.90;;;;;;5001666;28;20096;-78
2022/10/22 09:29:41;;;;;;;8.93;3.00;;;20.90;99.90;;;;;;4987879;28;20281;-77
2022/10/22 09:32:07;;;;;;;9.02;2.47;;;20.60;99.90;;;;;;5002207;28;20398;-76
2022/10/22 09:34:32;;;;;;;11.85;2.83;;;20.60;99.90;;;;;;4999427;28;20069;-77
2022/10/22 09:37:04;;;;;;;7.88;2.38;;;20.80;99.90;;;;;;4983023;28;20099;-76
2022/10/22 09:39:40;;;;;;;10.00;2.65;;;20.80;99.90;;;;;;4987842;28;20074;-76
2022/10/22 09:42:06;;;;;;;8.35;2.67;;;20.60;99.90;;;;;;5001611;28;20394;-76
2022/10/22 09:44:36;;;;;;;7.80;2.60;;;20.40;99.90;;;;;;5005619;28;20509;-76
2022/10/22 09:47:06;;;;;;;8.63;2.63;;;19.90;99.90;;;;;;4982946;28;20042;-76
2022/10/22 09:49:35;;;;;;;8.80;3.13;;;19.50;99.90;;;;;;5002407;28;20049;-76
2022/10/22 09:52:01;;;;;;;6.50;2.90;;;19.10;99.90;;;;;;4985113;28;20042;-76
2022/10/22 09:54:37;;;;;;;6.28;2.70;;;18.80;99.90;;;;;;5001660;28;20046;-76
2022/10/22 09:57:21;;;;;;;10.55;3.00;;;18.50;99.90;;;;;;4998916;28;20052;-76
2022/10/22 09:59:50;;;;;;;10.10;3.35;;;18.30;99.90;;;;;;4984909;28;20524;-76
2022/10/22 10:02:22;;;;;;;9.52;2.95;;;18.00;99.90;;;;;;5002853;28;20034;-77
2022/10/22 10:04:53;;;;;;;9.75;2.72;;;17.90;99.90;;;;;;5000946;28;20037;-77
2022/10/22 10:07:22;;;;;;;7.75;2.78;;;17.90;99.90;;;;;;4985736;28;20114;-78
2022/10/22 10:09:48;;;;;;;12.18;3.22;;;17.80;99.90;;;;;;5000946;28;20129;-78
2022/10/22 10:12:38;;;;;;;6.95;2.72;;;17.70;99.90;;;;;;5004229;28;20034;-79
2022/10/22 10:15:35;;;;;;;10.32;3.05;;;17.70;99.90;;;;;;5001257;28;20046;-76
2022/10/22 10:18:28;;;;;;;8.17;3.57;;;17.60;99.90;;;;;;5002841;28;20045;-76
2022/10/22 10:21:03;;;;;;;6.72;3.17;;;17.60;99.90;;;;;;5003491;28;20046;-76
2022/10/22 10:23:45;;;;;;;9.20;3.22;;;17.50;99.90;;;;;;5002037;28;20050;-77
2022/10/22 10:26:47;;;;;;;7.60;3.38;;;17.50;99.90;;;;;;4999023;28;20050;-77
2022/10/22 10:29:25;;;;;;;9.10;3.80;;;17.40;99.90;;;;;;4989513;28;20403;-77
2022/10/22 10:32:15;;;;;;;11.25;3.67;;;17.30;99.90;;;;;;5000552;28;20390;-77
2022/10/22 10:35:22;;;;;;;7.72;3.17;;;17.30;99.90;;;;;;4983412;28;20035;-77
2022/10/22 10:38:00;;;;;;;10.20;4.13;;;17.20;99.90;;;;;;5000644;28;20042;-77
2022/10/22 10:40:34;;;;;;;7.88;3.95;;;17.30;99.90;;;;;;5000579;28;20116;-77
2022/10/22 10:43:14;;;;;;;11.52;4.43;;;17.40;99.90;;;;;;5000564;28;20040;-77
2022/10/22 10:45:52;;;;;;;11.63;4.55;;;17.40;99.90;;;;;;4984646;28;20045;-77
2022/10/22 10:48:44;;;;;;;11.55;4.47;;;17.30;99.90;;;;;;4999866;28;20129;-77
2022/10/22 10:51:36;;;;;;;9.05;3.67;;;17.20;99.90;;;;;;5000403;28;20037;-79
2022/10/22 10:54:18;;;;;;;8.70;3.92;;;17.20;99.90;;;;;;5002464;28;20034;-77
2022/10/22 10:56:46;;;;;;;12.43;4.15;;;17.20;99.90;;;;;;4987038;28;20045;-77
2022/10/22 10:59:15;;;;;;;8.50;3.20;;;17.20;99.90;;;;;;4985131;28;20077;-77
2022/10/22 11:01:46;;;;;;;9.43;3.38;;;17.20;99.90;;;;;;4999987;28;20035;-76
2022/10/22 11:04:31;;;;;;;13.35;3.85;;;17.10;99.90;;;;;;5000649;28;20180;-77
2022/10/22 11:07:02;;;;;;;8.15;3.80;;;17.10;99.90;;;;;;5008683;28;20037;-77
2022/10/22 11:09:36;;;;;;;12.50;4.45;;;16.90;99.90;;;;;;4978996;28;20042;-76
2022/10/22 11:12:09;;;;;;;10.02;4.38;;;16.80;99.90;;;;;;5003158;28;20054;-76
2022/10/22 11:14:49;;;;;;;9.20;5.28;;;16.70;99.90;;;;;;4997905;28;20165;-75
2022/10/22 11:17:17;;;;;;;9.20;4.18;;;16.60;99.90;;;;;;5002624;28;20050;-76
2022/10/22 11:20:06;;;;;;;10.75;5.13;;;16.50;99.90;;;;;;5000779;28;20068;-76
2022/10/22 11:22:34;;;;;;;11.52;5.90;;;16.30;99.90;;;;;;4997390;28;20085;-76
2022/10/22 11:25:12;;;;;;;11.23;5.03;;;16.20;99.90;;;;;;4998191;28;20125;-76
2022/10/22 11:27:55;;;;;;;10.00;4.70;;;16.20;99.90;;;;;;4985550;28;20035;-77
2022/10/22 11:30:22;;;;;;;9.88;4.45;;;16.30;99.90;;;;;;5006408;28;20056;-77
2022/10/22 11:32:53;;;;;;;9.20;4.88;;;16.40;99.90;;;;;;5008409;28;20034;-76
2022/10/22 11:35:25;;;;;;;10.90;5.00;;;16.90;99.90;;;;;;4991283;28;20042;-76
2022/10/22 11:37:54;;;;;;;8.05;4.18;;;17.80;99.90;;;;;;4989746;28;20049;-76
2022/10/22 11:40:22;;;;;;;10.18;4.65;;;18.90;99.90;;;;;;4984912;28;20042;-76
2022/10/22 11:43:03;;;;;;;13.10;5.40;;;19.40;99.90;;;;;;4982783;28;20042;-76
2022/10/22 11:45:35;;;;;;;10.50;4.55;;;19.20;99.90;;;;;;5003754;28;20451;-76
2022/10/22 11:48:06;;;;;;;10.00;4.72;;;18.90;99.90;;;;;;4996466;28;20077;-75
2022/10/22 11:50:53;;;;;;;12.13;5.00;;;18.60;99.90;;;;;;4990600;28;20050;-76
2022/10/22 11:53:29;;;;;;;9.88;4.68;;;18.30;99.90;;;;;;5005907;28;20042;-76
2022/10/22 11:56:09;;;;;;;10.77;5.28;;;18.00;99.90;;;;;;5006210;28;20038;-78
2022/10/22 11:58:46;;;;;;;10.30;4.93;;;17.70;99.90;;;;;;4999632;28;20144;-77
2022/10/22 12:01:12;;;;;;;10.02;5.05;;;17.50;99.90;;;;;;4998900;28;20494;-77
2022/10/22 12:03:42;;;;;;;11.02;5.22;;;17.30;99.90;;;;;;5003527;28;20112;-77
2022/10/22 12:06:11;;;;;;;11.55;5.82;;;17.20;99.90;;;;;;5000994;28;20038;-76
2022/10/22 12:08:52;;;;;;;9.32;5.60;;;17.10;99.90;;;;;;5003677;28;20033;-76
2022/10/22 12:11:25;;;;;;;10.93;5.72;;;17.10;99.90;;;;;;4988949;28;20044;-77
2022/10/22 12:14:03;;;;;;;12.02;5.10;;;17.00;99.90;;;;;;5005733;28;20104;-77
2022/10/22 12:16:38;;;;;;;14.05;5.38;;;17.00;99.90;;;;;;4986494;28;20038;-79
2022/10/22 12:19:22;;;;;;;8.88;5.07;;;17.00;99.90;;;;;;5005396;28;20073;-79
2022/10/22 12:22:11;;;;;;;9.10;4.90;;;17.00;99.90;;;;;;5001736;28;20034;-78
2022/10/22 12:24:43;;;;;;;9.48;4.40;;;17.20;99.90;;;;;;5003191;28;20049;-79
2022/10/22 12:27:25;;;;;;;9.80;4.63;;;17.50;99.90;;;;;;4989971;28;20038;-78
2022/10/22 12:29:58;;;;;;;10.18;4.38;;;17.60;99.90;;;;;;4998432;28;20035;-76
2022/10/22 12:32:40;;;;;;;9.57;4.53;;;17.70;99.90;;;;;;4998877;28;20057;-75
2022/10/22 12:35:27;;;;;;;9.60;5.25;;;17.70;99.90;;;;;;4988211;28;20502;-74
2022/10/22 12:37:54;;;;;;;;;;;17.70;99.90;;;;;;4985277;28;20050;-74
2022/10/22 12:40:22;;;;;;;8.00;3.50;;;17.70;99.90;;;;;;4985350;28;19997;-74
2022/10/22 12:42:56;;;;;;;7.85;3.88;;;17.70;99.90;;;;;;5003814;28;20038;-74
2022/10/22 12:45:26;;;;;;;9.10;3.50;;;17.50;99.90;;;;;;4997739;28;20038;-74
2022/10/22 12:47:56;;;;;;;10.25;3.90;;;17.40;99.90;;;;;;5000981;28;20033;-74
2022/10/22 12:50:37;;;;;;;9.48;3.88;;;17.40;99.90;;;;;;4999559;28;20046;-74
2022/10/22 12:53:14;;;;;;;8.50;4.00;;;17.30;99.90;;;;;;5002063;28;20069;-74
2022/10/22 12:55:40;;;;;;;12.88;4.20;;;17.20;99.90;;;;;;4982480;28;20441;-75
2022/10/22 12:58:07;;;;;;;9.63;3.95;;;17.10;99.90;;;;;;5001253;28;20066;-75
2022/10/22 13:00:34;;;;;;;7.63;3.83;;;16.90;99.90;;;;;;4981192;28;20042;-74
2022/10/22 13:03:05;;;;;;;7.68;3.50;;;16.80;99.90;;;;;;4985979;28;20046;-75